Harrisville, Pennsylvania
Current Conditions -  °F | °C
As of 11:15 AM on Monday 24 Nov 2014 (Local Time) from KFKL Reporting Station
Overcast Overcast  
Wind Chill: 61°   Ceiling: 5000
Heat Index: 61°   Visibility: 10mi
Dew Point: 48°   Wind: 20mph
Humidity: 63%   Direction: 210°SSW
Pressure: 29.38"   Gusts: 37mph
Location:  41.14°N, 80.01°W
Report Text: KFKL 241615Z AUTO 21017G32KT 10SM FEW042 BKN050 OVC070 16/09 A2938 RMK AO1
Loading
Personal Weather Stations






























Interactive Weather Map New forecast layout! Learn more

10-Day Weather Forecast

Advertisements
Track Severe Weather on mobile